Rozel, Kansas
Current Conditions -  °F | °C
As of 6:55 AM on Saturday 20 Dec 2014 (Local Time) from KGBD Reporting Station
Clear Clear  
Wind Chill: 23°   Ceiling: Unl
Heat Index: 30°   Visibility: 4mi
Dew Point: 27°   Wind: 7mph
Humidity: 86%   Direction: 200°SSW
Pressure: 30.11"   Gusts: NA
Location:  38.2°N, 99.4°W
Report Text: KGBD 201255Z AUTO 20006KT 4SM CLR M01/M03 A3011 RMK AO1
Loading
Personal Weather Stations






























Interactive Weather Map New forecast layout! Learn more

10-Day Weather Forecast

Advertisements
Track Severe Weather on mobile